Time;durP1;ratioP1;P1;durP2;ratioP2;P2;SDS_P1;SDS_P2;PMS_P1;PMS_P2;Temp;Humidity;BMP_temperature;BMP_pressure;BME280_temperature;BME280_humidity;BME280_pressure;Samples;Min_cycle;Max_cycle;Signal;HPM_P1;HPM_P2
2022/04/27 00:01:24;;;;;;;;;;;;;;;2.83;74.00;98919.34;108047;1279;25402;-71
2022/04/27 00:03:51;;;;;;;;;;;;;;;2.83;74.00;98921.22;108041;1279;23057;-77
2022/04/27 00:06:19;;;;;;;;;;;;;;;2.84;74.43;98919.67;108040;1279;22646;-70
2022/04/27 00:08:46;;;;;;;;;;;;;;;2.83;75.03;98918.98;108043;1279;22594;-70
2022/04/27 00:11:13;;;;;;;;;;;;;;;2.82;75.43;98922.27;108028;1278;22562;-70
2022/04/27 00:13:40;;;;;;;;;;;;;;;2.80;75.57;98927.14;108160;1279;22530;-72
2022/04/27 00:16:07;;;;;;;;;;;;;;;2.80;75.47;98926.98;108046;1278;22610;-73
2022/04/27 00:18:34;;;;;;;;;;;;;;;2.78;75.34;98931.51;108023;1279;24352;-74
2022/04/27 00:21:01;;;;;;;;;;;;;;;2.77;75.08;98933.44;108003;1279;22559;-71
2022/04/27 00:23:30;;;;;;;;;;;;;;;2.75;75.07;98934.02;108028;1279;22900;-85
2022/04/27 00:25:57;;;;;;;;;;;;;;;2.73;75.25;98935.61;108024;1279;26732;-70
2022/04/27 00:28:24;;;;;;;;;;;;;;;2.72;74.87;98935.30;108050;1279;22555;-81
2022/04/27 00:30:50;;;;;;;;;;;;;;;2.70;74.49;98935.70;108030;1279;22581;-70
2022/04/27 00:33:17;;;;;;;;;;;;;;;2.73;74.37;98937.00;108033;1279;23638;-70
2022/04/27 00:35:44;;;;;;;;;;;;;;;2.74;74.89;98936.11;108040;1279;22601;-73
2022/04/27 00:38:11;;;;;;;;;;;;;;;2.74;75.43;98937.83;108005;1279;22708;-69
2022/04/27 00:40:38;;;;;;;;;;;;;;;2.73;75.99;98938.88;108038;1279;22557;-70
2022/04/27 00:43:05;;;;;;;;;;;;;;;2.70;76.00;98941.55;108041;1279;22527;-70
2022/04/27 00:45:32;;;;;;;;;;;;;;;2.67;75.84;98944.58;108049;1279;24389;-69
2022/04/27 00:47:59;;;;;;;;;;;;;;;2.63;75.65;98946.02;108023;1279;25373;-69
2022/04/27 00:50:26;;;;;;;;;;;;;;;2.60;75.42;98946.48;108057;1279;25243;-70
2022/04/27 00:52:54;;;;;;;;;;;;;;;2.55;75.29;98943.86;108017;1279;23135;-74
2022/04/27 00:55:21;;;;;;;;;;;;;;;2.50;75.32;98946.06;108035;1279;22521;-69
2022/04/27 00:57:47;;;;;;;;;;;;;;;2.45;75.17;98946.89;108046;1279;22553;-70
2022/04/27 01:00:15;;;;;;;;;;;;;;;2.44;75.11;98944.15;108027;1279;22621;-76
2022/04/27 01:02:42;;;;;;;;;;;;;;;2.44;75.10;98946.39;108004;1279;22705;-70
2022/04/27 01:05:11;;;;;;;;;;;;;;;2.44;75.60;98944.69;108085;1279;27664;-82
2022/04/27 01:07:39;;;;;;;;;;;;;;;2.44;76.09;98945.87;108037;1279;22516;-72
2022/04/27 01:10:07;;;;;;;;;;;;;;;2.42;76.39;98946.13;108028;1279;22630;-70
2022/04/27 01:12:34;;;;;;;;;;;;;;;2.39;76.20;98947.58;108029;1279;22696;-69
2022/04/27 01:15:01;;;;;;;;;;;;;;;2.37;76.18;98949.17;108041;1279;24277;-70
2022/04/27 01:17:28;;;;;;;;;;;;;;;2.36;76.01;98953.68;108060;1279;22686;-70
2022/04/27 01:19:56;;;;;;;;;;;;;;;2.33;75.88;98948.96;108038;1278;22506;-69
2022/04/27 01:22:23;;;;;;;;;;;;;;;2.29;75.70;98948.88;108023;1279;24097;-71
2022/04/27 01:24:50;;;;;;;;;;;;;;;2.30;75.78;98949.88;108003;1279;22700;-69
2022/04/27 01:27:17;;;;;;;;;;;;;;;2.34;75.53;98951.16;108024;1279;22564;-70
2022/04/27 01:29:44;;;;;;;;;;;;;;;2.36;76.09;98950.75;108035;1279;22540;-70
2022/04/27 01:32:10;;;;;;;;;;;;;;;2.36;76.84;98950.23;108071;1279;22686;-70
2022/04/27 01:34:37;;;;;;;;;;;;;;;2.34;76.97;98949.77;108054;1279;22534;-75
2022/04/27 01:39:50;;;;;;;;;;;;;;;2.28;76.66;98949.95;108033;1279;22533;-69
2022/04/27 01:42:17;;;;;;;;;;;;;;;2.24;76.40;98949.37;108026;1279;22620;-70
2022/04/27 01:44:43;;;;;;;;;;;;;;;2.19;76.32;98950.85;107958;1279;22675;-70
2022/04/27 01:47:10;;;;;;;;;;;;;;;2.20;76.16;98953.42;108009;1279;22589;-69
2022/04/27 01:49:37;;;;;;;;;;;;;;;2.22;76.31;98950.10;107989;1279;22569;-70
2022/04/27 01:54:50;;;;;;;;;;;;;;;2.23;77.18;98945.77;108043;1279;22531;-75
2022/04/27 01:57:17;;;;;;;;;;;;;;;2.21;77.46;98947.90;108026;1279;23204;-69
2022/04/27 01:59:44;;;;;;;;;;;;;;;2.18;77.24;98949.67;107735;1279;417617;-68
2022/04/27 02:02:11;;;;;;;;;;;;;;;2.15;77.00;98947.36;108128;1279;22681;-77
2022/04/27 02:04:39;;;;;;;;;;;;;;;2.12;76.96;98947.79;108324;1279;22737;-70
2022/04/27 02:07:06;;;;;;;;;;;;;;;2.10;76.70;98944.92;108276;1279;22530;-69
2022/04/27 02:09:33;;;;;;;;;;;;;;;2.07;76.48;98946.20;108266;1279;22655;-69
2022/04/27 02:12:00;;;;;;;;;;;;;;;2.04;76.10;98952.47;108287;1279;22519;-70
2022/04/27 02:14:27;;;;;;;;;;;;;;;2.04;76.03;98949.90;108292;1279;22753;-69
2022/04/27 02:16:54;;;;;;;;;;;;;;;2.04;76.11;98954.02;108269;1280;22598;-70
2022/04/27 02:19:21;;;;;;;;;;;;;;;2.02;76.60;98949.77;108293;1279;22681;-71
2022/04/27 02:21:48;;;;;;;;;;;;;;;1.97;76.81;98951.27;108295;1279;22790;-70
2022/04/27 02:24:15;;;;;;;;;;;;;;;1.91;76.76;98947.64;108271;1279;22477;-70
2022/04/27 02:26:42;;;;;;;;;;;;;;;1.86;76.80;98947.27;108297;1279;22511;-69
2022/04/27 02:29:09;;;;;;;;;;;;;;;1.81;76.47;98946.84;108327;1279;24230;-78
2022/04/27 02:31:36;;;;;;;;;;;;;;;1.76;76.33;98947.85;108296;1279;22520;-69
2022/04/27 02:34:03;;;;;;;;;;;;;;;1.71;76.15;98950.19;108300;1280;22554;-70
2022/04/27 02:36:30;;;;;;;;;;;;;;;1.71;76.28;98951.73;108284;1279;22604;-70
2022/04/27 02:38:57;;;;;;;;;;;;;;;1.72;76.28;98951.35;108290;1279;22531;-71
2022/04/27 02:41:23;;;;;;;;;;;;;;;1.74;76.53;98948.92;108298;1279;22546;-70
2022/04/27 02:43:51;;;;;;;;;;;;;;;1.73;77.07;98952.38;108275;1280;22521;-70
2022/04/27 02:46:18;;;;;;;;;;;;;;;1.70;77.25;98953.15;108257;1279;22595;-70
2022/04/27 02:51:49;;;;;;;;;;;;;;;1.64;76.82;98955.17;108314;1280;25360;-69
2022/04/27 02:54:20;;;;;;;;;;;;;;;1.60;76.45;98958.72;108233;1281;22611;-70
2022/04/27 02:56:48;;;;;;;;;;;;;;;1.56;76.43;98961.39;107996;1280;22639;-69
2022/04/27 02:59:15;;;;;;;;;;;;;;;1.56;76.38;98959.84;108019;1281;22530;-72
2022/04/27 03:01:42;;;;;;;;;;;;;;;1.56;76.35;98961.89;108023;1279;22526;-70
2022/04/27 03:04:09;;;;;;;;;;;;;;;1.57;76.93;98963.27;108012;1279;23095;-71
2022/04/27 03:06:36;;;;;;;;;;;;;;;1.55;77.42;98963.98;108022;1279;23942;-70
2022/04/27 03:09:03;;;;;;;;;;;;;;;1.53;77.55;98966.27;108031;1279;22603;-69
2022/04/27 03:11:30;;;;;;;;;;;;;;;1.50;77.57;98969.09;108078;1279;22535;-73
2022/04/27 03:13:57;;;;;;;;;;;;;;;1.47;77.21;98972.40;108016;1280;22716;-69
2022/04/27 03:16:24;;;;;;;;;;;;;;;1.41;77.21;98976.65;108030;1281;22782;-69
2022/04/27 03:18:50;;;;;;;;;;;;;;;1.36;77.03;98979.34;108012;1279;22692;-69
2022/04/27 03:21:17;;;;;;;;;;;;;;;1.34;76.75;98979.77;108023;1278;23031;-69
2022/04/27 03:23:45;;;;;;;;;;;;;;;1.36;76.79;98977.10;108040;1279;22530;-73
2022/04/27 03:26:11;;;;;;;;;;;;;;;1.39;77.07;98980.14;108017;1279;22614;-69
2022/04/27 03:28:38;;;;;;;;;;;;;;;1.40;77.53;98980.63;108026;1280;22600;-69
2022/04/27 03:31:05;;;;;;;;;;;;;;;1.41;77.90;98984.91;107992;1279;22595;-69
2022/04/27 03:33:32;;;;;;;;;;;;;;;1.40;77.95;98983.90;107980;1281;22513;-69
2022/04/27 03:35:59;;;;;;;;;;;;;;;1.39;77.87;98983.05;108008;1281;22561;-69
2022/04/27 03:38:26;;;;;;;;;;;;;;;1.41;77.62;98983.71;108031;1280;23065;-69
2022/04/27 03:40:53;;;;;;;;;;;;;;;1.42;77.50;98984.54;108024;1281;22543;-70
2022/04/27 03:43:19;;;;;;;;;;;;;;;1.42;77.37;98981.80;107982;1281;22585;-69
2022/04/27 03:45:46;;;;;;;;;;;;;;;1.46;77.15;98984.59;108010;1280;22529;-70
2022/04/27 03:48:13;;;;;;;;;;;;;;;1.54;77.37;98990.45;108031;1279;22672;-69
2022/04/27 03:50:40;;;;;;;;;;;;;;;1.60;77.62;98989.77;107998;1281;22672;-70
2022/04/27 03:53:07;;;;;;;;;;;;;;;1.64;78.07;98984.87;108062;1279;22561;-70
2022/04/27 03:55:35;;;;;;;;;;;;;;;1.68;78.45;98988.40;108035;1279;22694;-70
2022/04/27 03:58:02;;;;;;;;;;;;;;;1.72;78.21;98990.69;107987;1281;22598;-69
2022/04/27 04:00:29;;;;;;;;;;;;;;;1.76;78.19;98995.41;108171;1279;22524;-70
2022/04/27 04:03:00;;;;;;;;;;;;;;;1.80;77.92;98996.67;108023;1280;25290;-71
2022/04/27 04:05:28;;;;;;;;;;;;;;;1.83;77.69;99000.03;108014;1280;22517;-70
2022/04/27 04:07:55;;;;;;;;;;;;;;;1.86;77.69;99001.86;107979;1281;24247;-73
2022/04/27 04:10:22;;;;;;;;;;;;;;;1.93;77.74;99010.80;108008;1281;22567;-70
2022/04/27 04:12:49;;;;;;;;;;;;;;;2.03;77.60;99014.66;107999;1280;23374;-69
2022/04/27 04:15:15;;;;;;;;;;;;;;;2.13;77.78;99011.85;108038;1281;22653;-69
2022/04/27 04:17:45;;;;;;;;;;;;;;;2.22;78.36;99015.58;108052;1279;25923;-71
2022/04/27 04:20:13;;;;;;;;;;;;;;;2.28;78.68;99018.33;108021;1281;22550;-70
2022/04/27 04:22:41;;;;;;;;;;;;;;;2.35;78.71;99020.72;108195;1279;22600;-73
2022/04/27 04:30:39;;;;;;;;;;;;;;;2.64;78.27;99023.21;107975;1281;23357;-70
2022/04/27 04:33:06;;;;;;;;;;;;;;;2.77;78.15;99025.12;108100;1280;22550;-70
2022/04/27 04:35:35;;;;;;;;;;;;;;;2.92;77.82;99025.88;108009;1280;22544;-70
2022/04/27 04:38:04;;;;;;;;;;;;;;;3.07;77.98;99024.77;108031;1280;22662;-70
2022/04/27 04:40:31;;;;;;;;;;;;;;;3.25;78.56;99027.52;108013;1279;22522;-70
2022/04/27 04:42:58;;;;;;;;;;;;;;;3.44;79.03;99028.52;108000;1281;22674;-74
2022/04/27 04:45:25;;;;;;;;;;;;;;;3.73;79.23;99031.92;108021;1280;22845;-73
2022/04/27 04:47:51;;;;;;;;;;;;;;;4.11;80.06;99032.41;108034;1281;22557;-70
2022/04/27 04:50:19;;;;;;;;;;;;;;;4.47;80.56;99032.40;108001;1278;22637;-71
2022/04/27 04:52:48;;;;;;;;;;;;;;;4.83;81.05;99032.55;108031;1281;22543;-70
2022/04/27 04:55:16;;;;;;;;;;;;;;;5.26;80.25;99032.85;108049;1279;23099;-70
2022/04/27 04:57:42;;;;;;;;;;;;;;;5.74;80.28;99035.16;108058;1279;22561;-70
2022/04/27 05:00:10;;;;;;;;;;;;;;;6.19;79.67;99037.17;108052;1281;22511;-70
2022/04/27 05:02:36;;;;;;;;;;;;;;;6.59;79.17;99040.70;108041;1281;22584;-69
2022/04/27 05:05:04;;;;;;;;;;;;;;;6.94;78.06;99042.83;108096;1281;22527;-69
2022/04/27 05:07:31;;;;;;;;;;;;;;;7.10;77.30;99041.41;108057;1279;22540;-68
2022/04/27 05:09:59;;;;;;;;;;;;;;;7.08;76.52;99042.16;108011;1280;22543;-70
2022/04/27 05:12:25;;;;;;;;;;;;;;;7.05;76.11;99046.32;108091;1281;22633;-71
2022/04/27 05:14:53;;;;;;;;;;;;;;;7.04;75.62;99049.81;108064;1281;23079;-69
2022/04/27 05:17:21;;;;;;;;;;;;;;;7.02;75.50;99050.93;108043;1281;22519;-75
2022/04/27 05:19:49;;;;;;;;;;;;;;;7.07;75.32;99047.42;108010;1281;22657;-70
2022/04/27 05:22:16;;;;;;;;;;;;;;;7.10;74.84;99051.77;108023;1280;22532;-69
2022/04/27 05:24:42;;;;;;;;;;;;;;;7.16;74.50;99053.95;108009;1281;22632;-74
2022/04/27 05:27:09;;;;;;;;;;;;;;;7.24;74.47;99059.86;108016;1281;23025;-69
2022/04/27 05:32:22;;;;;;;;;;;;;;;7.40;74.01;99063.46;108013;1281;26226;-69
2022/04/27 05:34:49;;;;;;;;;;;;;;;7.45;73.60;99067.15;108008;1281;22607;-75
2022/04/27 05:37:15;;;;;;;;;;;;;;;7.51;73.58;99066.58;108065;1279;22550;-72
2022/04/27 05:39:42;;;;;;;;;;;;;;;7.55;73.32;99064.30;108056;1280;23476;-69
2022/04/27 05:42:09;;;;;;;;;;;;;;;7.58;73.37;99066.41;108052;1279;22602;-70
2022/04/27 05:44:36;;;;;;;;;;;;;;;7.61;73.36;99067.46;108077;1280;22533;-70
2022/04/27 05:47:04;;;;;;;;;;;;;;;7.65;73.02;99065.40;108032;1279;22531;-70
2022/04/27 05:49:32;;;;;;;;;;;;;;;7.72;72.61;99068.70;108032;1280;25397;-81
2022/04/27 05:51:58;;;;;;;;;;;;;;;7.80;72.67;99069.02;108094;1279;22647;-83
2022/04/27 05:54:25;;;;;;;;;;;;;;;7.94;73.04;99070.59;108041;1279;24478;-72
2022/04/27 05:56:52;;;;;;;;;;;;;;;8.04;73.35;99069.11;108018;1279;22771;-71
2022/04/27 05:59:19;;;;;;;;;;;;;;;8.14;73.27;99072.08;108034;1279;22548;-70
2022/04/27 06:01:46;;;;;;;;;;;;;;;8.22;72.73;99075.71;108046;1279;22571;-80
2022/04/27 06:04:13;;;;;;;;;;;;;;;8.25;72.22;99081.61;108051;1279;22536;-70
2022/04/27 06:06:40;;;;;;;;;;;;;;;8.22;71.80;99085.05;108024;1279;22597;-85
2022/04/27 06:09:06;;;;;;;;;;;;;;;8.24;71.71;99086.53;108034;1279;22541;-86
2022/04/27 06:11:33;;;;;;;;;;;;;;;8.28;71.64;99089.61;108019;1279;22516;-83
2022/04/27 06:14:00;;;;;;;;;;;;;;;8.35;71.88;99090.36;108010;1279;22534;-82
2022/04/27 06:16:27;;;;;;;;;;;;;;;8.43;71.67;99088.91;107992;1279;22892;-84
2022/04/27 06:18:54;;;;;;;;;;;;;;;8.54;71.27;99096.38;108011;1278;22515;-81
2022/04/27 06:21:21;;;;;;;;;;;;;;;8.65;71.32;99095.81;107994;1278;22521;-84
2022/04/27 06:23:47;;;;;;;;;;;;;;;8.73;71.27;99098.86;108037;1279;22604;-84
2022/04/27 06:26:14;;;;;;;;;;;;;;;8.79;70.84;99103.45;108035;1279;22521;-83
2022/04/27 06:28:41;;;;;;;;;;;;;;;8.82;70.29;99100.67;107998;1279;22699;-75
2022/04/27 06:31:08;;;;;;;;;;;;;;;8.87;70.52;99102.52;108030;1279;22672;-70
2022/04/27 06:33:35;;;;;;;;;;;;;;;8.92;70.52;99105.36;108099;1279;22597;-69
2022/04/27 06:36:02;;;;;;;;;;;;;;;8.99;70.15;99104.83;108017;1280;23727;-72
2022/04/27 06:38:29;;;;;;;;;;;;;;;9.13;69.23;99104.48;108106;1279;22521;-71
2022/04/27 06:40:55;;;;;;;;;;;;;;;9.26;68.98;99108.64;108069;1279;24303;-76
2022/04/27 06:43:22;;;;;;;;;;;;;;;9.41;69.34;99109.41;108083;1279;22518;-70
2022/04/27 06:45:49;;;;;;;;;;;;;;;9.53;69.10;99106.17;108076;1279;22518;-79
2022/04/27 06:48:16;;;;;;;;;;;;;;;9.68;68.43;99111.28;108039;1279;22554;-81
2022/04/27 06:50:43;;;;;;;;;;;;;;;9.85;68.46;99110.51;108021;1279;22518;-69
2022/04/27 06:53:09;;;;;;;;;;;;;;;10.00;67.73;99108.10;108025;1279;25201;-72
2022/04/27 06:55:37;;;;;;;;;;;;;;;10.12;66.39;99113.34;108156;1280;22528;-69
2022/04/27 06:58:04;;;;;;;;;;;;;;;10.21;66.27;99113.45;108294;1279;24363;-72
2022/04/27 07:00:30;;;;;;;;;;;;;;;10.24;65.56;99114.30;108317;1279;24437;-70
2022/04/27 07:02:57;;;;;;;;;;;;;;;10.29;65.25;99115.61;108310;1279;22528;-70
2022/04/27 07:05:26;;;;;;;;;;;;;;;10.32;64.97;99112.80;108301;1279;22674;-69
2022/04/27 07:07:53;;;;;;;;;;;;;;;10.42;65.10;99112.08;108283;1279;22610;-70
2022/04/27 07:10:20;;;;;;;;;;;;;;;10.54;64.79;99115.04;108297;1279;22694;-71
2022/04/27 07:12:47;;;;;;;;;;;;;;;10.62;63.94;99114.38;108290;1279;22549;-71
2022/04/27 07:15:14;;;;;;;;;;;;;;;10.68;63.56;99113.16;108307;1278;22631;-70
2022/04/27 07:17:41;;;;;;;;;;;;;;;10.74;63.62;99117.00;108280;1279;25290;-69
2022/04/27 07:20:08;;;;;;;;;;;;;;;10.82;63.49;99119.11;108291;1279;22526;-78
2022/04/27 07:22:35;;;;;;;;;;;;;;;10.91;63.56;99115.98;108283;1279;22528;-82
2022/04/27 07:25:02;;;;;;;;;;;;;;;11.00;63.48;99118.24;108315;1279;22549;-77
2022/04/27 07:27:31;;;;;;;;;;;;;;;11.10;62.51;99121.86;108283;1279;22577;-84
2022/04/27 07:29:59;;;;;;;;;;;;;;;11.11;61.58;99122.66;108276;1279;22601;-79
2022/04/27 07:32:26;;;;;;;;;;;;;;;11.13;61.50;99124.64;108338;1279;22544;-89
2022/04/27 07:34:52;;;;;;;;;;;;;;;11.17;61.76;99127.19;108304;1279;22611;-80
2022/04/27 07:37:19;;;;;;;;;;;;;;;11.24;61.65;99132.16;108284;1279;22523;-78
2022/04/27 07:39:46;;;;;;;;;;;;;;;11.31;61.27;99132.42;108286;1279;22530;-79
2022/04/27 07:42:13;;;;;;;;;;;;;;;11.37;61.03;99128.08;108320;1278;22597;-70
2022/04/27 07:44:39;;;;;;;;;;;;;;;11.50;60.84;99131.10;108357;1279;22624;-80
2022/04/27 07:47:08;;;;;;;;;;;;;;;11.70;60.95;99130.59;108314;1279;22637;-87
2022/04/27 07:49:35;;;;;;;;;;;;;;;11.94;60.12;99134.17;108300;1279;22518;-71
2022/04/27 07:52:02;;;;;;;;;;;;;;;12.08;58.94;99129.75;108296;1279;22695;-82
2022/04/27 07:54:28;;;;;;;;;;;;;;;12.13;57.71;99128.73;108318;1279;22593;-84
2022/04/27 07:56:55;;;;;;;;;;;;;;;12.15;56.29;99133.35;108293;1279;22624;-82
2022/04/27 07:59:22;;;;;;;;;;;;;;;12.14;55.84;99136.70;108279;1279;22533;-86
2022/04/27 08:01:49;;;;;;;;;;;;;;;12.21;56.31;99137.34;108311;1279;22543;-81
2022/04/27 08:04:16;;;;;;;;;;;;;;;12.29;54.77;99139.40;108269;1279;25237;-77
2022/04/27 08:06:43;;;;;;;;;;;;;;;12.34;53.76;99144.00;108260;1279;24251;-88
2022/04/27 08:09:10;;;;;;;;;;;;;;;12.38;54.89;99144.75;108299;1279;22546;-87
2022/04/27 08:11:40;;;;;;;;;;;;;;;12.38;54.46;99139.52;108281;1279;22529;-88
2022/04/27 08:14:06;;;;;;;;;;;;;;;12.39;54.85;99136.30;108351;1279;22537;-76
2022/04/27 08:16:34;;;;;;;;;;;;;;;12.42;53.89;99140.33;108317;1279;22683;-86
2022/04/27 08:19:01;;;;;;;;;;;;;;;12.43;54.16;99141.13;108252;1277;24381;-69
2022/04/27 08:21:27;;;;;;;;;;;;;;;12.49;53.80;99141.14;108300;1279;22603;-83
2022/04/27 08:23:54;;;;;;;;;;;;;;;12.59;53.55;99139.92;108353;1279;22521;-78
2022/04/27 08:26:21;;;;;;;;;;;;;;;12.66;53.94;99137.86;108337;1277;22519;-90
2022/04/27 08:28:48;;;;;;;;;;;;;;;12.80;54.06;99143.77;108328;1279;22533;-92
2022/04/27 08:31:17;;;;;;;;;;;;;;;12.92;54.05;99143.34;108361;1279;22557;-84
2022/04/27 08:33:44;;;;;;;;;;;;;;;13.02;54.15;99145.44;108338;1279;22687;-84
2022/04/27 08:36:11;;;;;;;;;;;;;;;13.07;53.11;99150.34;108317;1279;22532;-78
2022/04/27 08:38:38;;;;;;;;;;;;;;;13.09;52.70;99145.30;108304;1279;22585;-85
2022/04/27 08:41:05;;;;;;;;;;;;;;;13.10;52.72;99150.12;108278;1279;22694;-73
2022/04/27 08:43:32;;;;;;;;;;;;;;;13.10;51.85;99150.29;108290;1279;25448;-72
2022/04/27 08:46:01;;;;;;;;;;;;;;;13.12;52.44;99150.69;108220;1279;24338;-75
2022/04/27 08:48:28;;;;;;;;;;;;;;;13.24;52.51;99153.23;108251;1279;23271;-86
2022/04/27 08:50:55;;;;;;;;;;;;;;;13.38;52.40;99151.23;108258;1279;24237;-88
2022/04/27 08:53:23;;;;;;;;;;;;;;;13.51;53.35;99148.98;108247;1278;25404;-86
2022/04/27 08:55:52;;;;;;;;;;;;;;;13.67;53.35;99150.30;108264;1279;22530;-87
2022/04/27 08:58:21;;;;;;;;;;;;;;;13.83;52.57;99148.97;108244;1279;22695;-87
2022/04/27 09:00:48;;;;;;;;;;;;;;;13.95;52.69;99154.13;108293;1279;22533;-87
2022/04/27 09:03:25;;;;;;;;;;;;;;;13.99;51.07;99150.16;108311;1279;22555;-76
2022/04/27 09:05:58;;;;;;;;;;;;;;;13.90;51.24;99150.76;108299;1279;25274;-71
2022/04/27 09:08:26;;;;;;;;;;;;;;;13.90;51.42;99154.58;108319;1279;22534;-75
2022/04/27 09:11:12;;;;;;;;;;;;;;;13.84;50.80;99156.58;108300;1279;22587;-80
2022/04/27 09:13:39;;;;;;;;;;;;;;;13.92;51.10;99157.64;108266;1279;22525;-70
2022/04/27 09:16:08;;;;;;;;;;;;;;;14.10;50.10;99158.98;108271;1279;22528;-77
2022/04/27 09:22:01;;;;;;;;;;;;;;;14.44;50.02;99151.66;108240;1279;22601;-79
2022/04/27 09:24:28;;;;;;;;;;;;;;;14.60;49.16;99148.82;108175;1279;22624;-83
2022/04/27 09:26:59;;;;;;;;;;;;;;;14.51;47.94;99148.65;108207;1279;22535;-83
2022/04/27 09:29:26;;;;;;;;;;;;;;;14.46;48.77;99147.48;108190;1279;22550;-87
2022/04/27 09:31:58;;;;;;;;;;;;;;;14.44;48.84;99148.33;108195;1279;22614;-87
2022/04/27 09:34:28;;;;;;;;;;;;;;;14.48;49.44;99147.45;108232;1279;22895;-77
2022/04/27 09:36:59;;;;;;;;;;;;;;;14.56;49.56;99145.63;108142;1279;22527;-69
2022/04/27 09:39:26;;;;;;;;;;;;;;;14.77;49.30;99146.42;108126;1279;24258;-72
2022/04/27 09:42:01;;;;;;;;;;;;;;;14.79;49.35;99145.91;108130;1279;22542;-80
2022/04/27 09:44:29;;;;;;;;;;;;;;;14.82;49.02;99145.52;108133;1279;23050;-79
2022/04/27 09:46:57;;;;;;;;;;;;;;;14.86;48.49;99149.73;108128;1279;22687;-70
2022/04/27 09:49:26;;;;;;;;;;;;;;;14.85;47.10;99148.90;108099;1279;22537;-74
2022/04/27 09:51:53;;;;;;;;;;;;;;;14.95;48.90;99147.31;108118;1279;22720;-85
2022/04/27 09:54:21;;;;;;;;;;;;;;;15.09;49.61;99141.33;108229;1279;22532;-75
2022/04/27 09:56:54;;;;;;;;;;;;;;;15.25;49.84;99137.46;108235;1279;22518;-81
2022/04/27 09:59:26;;;;;;;;;;;;;;;15.42;49.01;99140.54;108226;1279;22688;-80
2022/04/27 10:01:55;;;;;;;;;;;;;;;15.62;49.49;99138.86;108250;1279;22531;-75
2022/04/27 10:04:24;;;;;;;;;;;;;;;15.93;48.50;99134.64;108209;1279;22622;-76
2022/04/27 10:06:52;;;;;;;;;;;;;;;16.14;44.73;99131.55;108211;1279;23841;-69
2022/04/27 10:09:18;;;;;;;;;;;;;;;16.11;44.54;99132.86;108217;1279;22598;-73
2022/04/27 10:11:45;;;;;;;;;;;;;;;16.14;43.37;99135.63;108227;1279;25576;-72
2022/04/27 10:14:12;;;;;;;;;;;;;;;15.96;42.33;99132.80;108201;1279;22544;-75
2022/04/27 10:16:39;;;;;;;;;;;;;;;15.83;42.98;99131.23;108207;1279;22560;-69
2022/04/27 10:19:10;;;;;;;;;;;;;;;15.77;43.06;99131.00;108255;1279;23931;-73
2022/04/27 10:21:56;;;;;;;;;;;;;;;15.84;43.40;99130.77;108272;1279;22532;-70
2022/04/27 10:24:41;;;;;;;;;;;;;;;15.90;43.08;99130.56;108312;1279;22594;-85
2022/04/27 10:27:14;;;;;;;;;;;;;;;15.95;42.71;99129.59;108321;1279;25411;-72
2022/04/27 10:29:43;;;;;;;;;;;;;;;16.00;43.46;99130.61;108312;1279;22518;-76
2022/04/27 10:32:10;;;;;;;;;;;;;;;16.16;43.92;99128.44;108255;1279;22600;-76
2022/04/27 10:34:37;;;;;;;;;;;;;;;16.32;43.68;99127.14;108311;1279;23228;-71
2022/04/27 10:37:04;;;;;;;;;;;;;;;16.53;43.73;99130.36;108299;1279;22719;-73
2022/04/27 10:39:31;;;;;;;;;;;;;;;16.64;43.23;99136.48;108314;1279;24279;-79
2022/04/27 10:42:04;;;;;;;;;;;;;;;16.61;43.55;99137.08;108286;1279;23196;-78
2022/04/27 10:44:46;;;;;;;;;;;;;;;16.42;42.88;99139.83;108309;1279;22531;-72
2022/04/27 10:47:14;;;;;;;;;;;;;;;16.25;42.08;99136.14;108324;1279;25106;-79
2022/04/27 10:49:41;;;;;;;;;;;;;;;16.14;42.28;99139.52;108315;1279;22533;-71
2022/04/27 10:52:08;;;;;;;;;;;;;;;15.99;42.97;99141.23;108284;1279;23245;-72
2022/04/27 10:54:39;;;;;;;;;;;;;;;15.95;43.06;99138.89;108329;1279;22588;-70
2022/04/27 10:57:15;;;;;;;;;;;;;;;15.85;43.02;99137.11;108323;1279;25386;-70
2022/04/27 10:59:49;;;;;;;;;;;;;;;15.78;42.61;99139.69;108317;1279;22544;-70
2022/04/27 11:02:36;;;;;;;;;;;;;;;15.64;42.73;99141.91;108239;1279;22546;-70
2022/04/27 11:05:19;;;;;;;;;;;;;;;15.52;43.01;99144.73;108304;1279;22608;-71
2022/04/27 11:08:01;;;;;;;;;;;;;;;15.34;42.94;99145.34;108289;1279;24464;-70
2022/04/27 11:10:28;;;;;;;;;;;;;;;15.24;43.76;99148.64;108305;1279;22688;-71
2022/04/27 11:12:56;;;;;;;;;;;;;;;15.15;42.90;99152.84;108275;1279;25079;-76
2022/04/27 11:15:24;;;;;;;;;;;;;;;15.03;42.94;99152.48;108322;1278;22803;-70
2022/04/27 11:18:00;;;;;;;;;;;;;;;14.87;42.80;99152.85;108294;1278;22603;-76
2022/04/27 11:20:35;;;;;;;;;;;;;;;14.80;43.29;99156.19;108311;1278;22677;-85
2022/04/27 11:23:06;;;;;;;;;;;;;;;14.77;43.40;99152.91;108314;1279;22670;-70
2022/04/27 11:25:35;;;;;;;;;;;;;;;14.71;43.44;99157.54;108379;1279;22615;-69
2022/04/27 11:28:03;;;;;;;;;;;;;;;14.68;43.23;99158.67;108262;1279;22661;-71
2022/04/27 11:30:31;;;;;;;;;;;;;;;14.57;43.53;99153.77;108041;1279;22654;-70
2022/04/27 11:33:00;;;;;;;;;;;;;;;14.51;44.05;99154.78;108068;1279;22532;-71
2022/04/27 11:35:42;;;;;;;;;;;;;;;14.56;44.44;99154.59;108079;1279;22579;-77
2022/04/27 11:38:09;;;;;;;;;;;;;;;14.60;44.23;99154.45;108076;1279;22600;-71
2022/04/27 11:40:39;;;;;;;;;;;;;;;14.66;43.85;99154.91;108023;1279;22547;-70
2022/04/27 11:43:06;;;;;;;;;;;;;;;14.75;43.96;99155.16;108052;1279;22607;-70
2022/04/27 11:45:33;;;;;;;;;;;;;;;14.91;42.81;99157.23;108042;1278;25329;-69
2022/04/27 11:48:02;;;;;;;;;;;;;;;14.98;42.14;99159.02;108052;1279;22552;-69
2022/04/27 11:50:32;;;;;;;;;;;;;;;15.15;41.85;99158.94;108058;1279;25318;-69
2022/04/27 11:53:01;;;;;;;;;;;;;;;15.24;41.39;99157.23;108076;1279;22689;-69
2022/04/27 11:55:28;;;;;;;;;;;;;;;15.40;41.72;99155.27;108085;1278;22598;-74
2022/04/27 11:57:55;;;;;;;;;;;;;;;15.61;40.60;99154.77;108044;1279;22527;-72
2022/04/27 12:00:23;;;;;;;;;;;;;;;15.65;40.63;99155.30;108019;1279;23043;-71
2022/04/27 12:02:50;;;;;;;;;;;;;;;15.78;40.28;99153.02;108029;1279;22513;-73
2022/04/27 12:05:16;;;;;;;;;;;;;;;15.90;39.92;99153.70;108044;1279;22531;-70
2022/04/27 12:07:49;;;;;;;;;;;;;;;16.00;40.01;99154.33;108058;1279;22534;-77
2022/04/27 12:10:16;;;;;;;;;;;;;;;16.05;40.53;99151.05;108022;1278;24238;-79
2022/04/27 12:12:43;;;;;;;;;;;;;;;16.11;40.44;99151.98;108013;1279;22538;-76
2022/04/27 12:15:11;;;;;;;;;;;;;;;16.17;40.86;99149.09;108050;1279;25306;-70
2022/04/27 12:17:42;;;;;;;;;;;;;;;16.29;40.89;99148.86;108040;1278;22563;-85
2022/04/27 12:20:21;;;;;;;;;;;;;;;16.43;40.47;99146.26;108069;1279;23512;-70
2022/04/27 12:22:51;;;;;;;;;;;;;;;16.39;40.34;99146.75;108047;1279;23002;-74
2022/04/27 12:25:18;;;;;;;;;;;;;;;16.38;39.75;99147.35;108108;1279;24228;-74
2022/04/27 12:27:46;;;;;;;;;;;;;;;16.34;40.24;99146.81;108022;1279;22524;-80
2022/04/27 12:30:18;;;;;;;;;;;;;;;16.39;40.45;99148.55;108083;1279;23961;-76
2022/04/27 12:32:44;;;;;;;;;;;;;;;16.51;40.37;99145.99;108029;1279;22548;-70
2022/04/27 12:38:07;;;;;;;;;;;;;;;16.82;39.13;99143.61;108069;1279;22575;-74
2022/04/27 12:40:34;;;;;;;;;;;;;;;16.77;39.06;99141.53;108035;1279;22525;-70
2022/04/27 12:43:05;;;;;;;;;;;;;;;16.76;39.70;99144.11;108080;1279;24356;-70
2022/04/27 12:45:33;;;;;;;;;;;;;;;16.93;39.82;99148.52;108060;1279;22780;-76
2022/04/27 12:48:01;;;;;;;;;;;;;;;17.05;37.60;99147.52;108058;1278;22666;-71
2022/04/27 12:50:29;;;;;;;;;;;;;;;17.04;36.86;99146.73;108040;1279;22595;-71
2022/04/27 12:53:06;;;;;;;;;;;;;;;17.07;36.70;99145.59;108042;1279;22597;-70
2022/04/27 12:55:33;;;;;;;;;;;;;;;17.08;36.21;99147.98;108143;1279;22558;-70
2022/04/27 12:58:01;;;;;;;;;;;;;;;17.05;36.80;99146.98;108095;1279;24245;-75
2022/04/27 13:00:43;;;;;;;;;;;;;;;17.11;36.66;99151.02;108141;1279;22724;-70
2022/04/27 13:03:11;;;;;;;;;;;;;;;17.04;36.85;99147.59;108075;1279;22475;-72
2022/04/27 13:05:40;;;;;;;;;;;;;;;17.07;36.19;99144.33;108026;1279;22519;-79
2022/04/27 13:08:08;;;;;;;;;;;;;;;17.05;36.49;99142.00;108081;1279;22538;-69
2022/04/27 13:13:22;;;;;;;;;;;;;;;16.97;36.55;99138.17;108080;1279;22533;-71